createdAt,value
2023-03-06T00:00:29.957Z,3.33
2023-03-06T00:03:14.613Z,3.36
2023-03-06T00:05:44.573Z,3.36
2023-03-06T00:08:11.627Z,3.36
2023-03-06T00:10:39.358Z,3.33
2023-03-06T00:13:07.784Z,3.35
2023-03-06T00:15:35.219Z,3.36
2023-03-06T00:18:06.036Z,3.31
2023-03-06T00:20:33.946Z,3.31
2023-03-06T00:23:00.866Z,3.28
2023-03-06T00:25:28.231Z,3.24
2023-03-06T00:27:57.503Z,3.22
2023-03-06T00:30:25.169Z,3.21
2023-03-06T00:32:52.930Z,3.25
2023-03-06T00:35:20.610Z,3.25
2023-03-06T00:37:47.688Z,3.30
2023-03-06T00:40:16.406Z,3.29
2023-03-06T00:42:43.453Z,3.28
2023-03-06T00:45:11.867Z,3.29
2023-03-06T00:47:39.292Z,3.30
2023-03-06T00:50:06.696Z,3.30
2023-03-06T00:52:33.695Z,3.28
2023-03-06T00:55:00.904Z,3.28
2023-03-06T00:57:28.004Z,3.29
2023-03-06T00:59:55.608Z,3.30
2023-03-06T01:02:22.585Z,3.26
2023-03-06T01:04:49.881Z,3.28
2023-03-06T01:07:17.098Z,3.30
2023-03-06T01:09:44.326Z,3.25
2023-03-06T01:12:11.243Z,3.24
2023-03-06T01:14:38.523Z,3.23
2023-03-06T01:17:05.455Z,3.24
2023-03-06T01:19:32.614Z,3.26
2023-03-06T01:21:59.556Z,3.30
2023-03-06T01:24:29.388Z,3.32
2023-03-06T01:26:56.975Z,3.30
2023-03-06T01:29:26.442Z,3.30
2023-03-06T01:31:56.044Z,3.27
2023-03-06T01:34:26.198Z,3.25
2023-03-06T01:36:53.071Z,3.27
2023-03-06T01:39:20.229Z,3.29
2023-03-06T01:41:47.571Z,3.28
2023-03-06T01:44:14.955Z,3.30
2023-03-06T01:46:43.191Z,3.31
2023-03-06T01:49:25.134Z,3.31
2023-03-06T01:51:55.142Z,3.31
2023-03-06T01:54:28.608Z,3.31
2023-03-06T01:57:01.699Z,3.32
2023-03-06T01:59:29.472Z,3.31
2023-03-06T02:01:58.575Z,3.35
2023-03-06T02:04:25.769Z,3.33
2023-03-06T02:06:52.675Z,3.34
2023-03-06T02:09:19.868Z,3.31
2023-03-06T02:11:46.853Z,3.31
2023-03-06T02:14:16.308Z,3.29
2023-03-06T02:16:44.414Z,3.26
2023-03-06T02:19:19.344Z,3.25
2023-03-06T02:21:46.496Z,3.25
2023-03-06T02:24:36.861Z,3.24
2023-03-06T02:27:04.741Z,3.33
2023-03-06T02:29:32.203Z,3.31
2023-03-06T02:32:02.483Z,3.31
2023-03-06T02:34:29.701Z,3.27
2023-03-06T02:37:02.392Z,3.28
2023-03-06T02:39:32.677Z,3.29
2023-03-06T02:41:59.662Z,3.28
2023-03-06T02:44:30.322Z,3.31
2023-03-06T02:46:57.181Z,3.30
2023-03-06T02:49:26.713Z,3.29
2023-03-06T02:51:53.624Z,3.25
2023-03-06T02:54:21.075Z,3.22
2023-03-06T02:56:48.228Z,3.21
2023-03-06T02:59:15.494Z,3.16
2023-03-06T03:01:42.455Z,3.17
2023-03-06T03:04:12.921Z,3.13
2023-03-06T03:06:39.892Z,3.06
2023-03-06T03:09:07.564Z,3.09
2023-03-06T03:11:35.326Z,3.02
2023-03-06T03:14:02.525Z,2.98
2023-03-06T03:16:33.114Z,2.98
2023-03-06T03:19:00.416Z,2.95
2023-03-06T03:21:27.768Z,2.94
2023-03-06T03:23:56.323Z,2.92
2023-03-06T03:26:26.143Z,2.86
2023-03-06T03:29:19.306Z,2.80
2023-03-06T03:31:47.781Z,2.78
2023-03-06T03:34:19.022Z,2.71
2023-03-06T03:36:46.657Z,2.68
2023-03-06T03:39:16.603Z,2.77
2023-03-06T03:41:43.461Z,2.72
2023-03-06T03:44:12.284Z,2.66
2023-03-06T03:46:39.503Z,2.62
2023-03-06T03:49:11.781Z,2.58
2023-03-06T03:51:38.836Z,2.53
2023-03-06T03:54:06.922Z,2.52
2023-03-06T03:56:40.939Z,2.49
2023-03-06T03:59:15.479Z,2.45
2023-03-06T04:01:52.376Z,2.41
2023-03-06T04:04:22.259Z,2.38
2023-03-06T04:06:49.617Z,2.36
2023-03-06T04:09:18.815Z,2.35
2023-03-06T04:11:48.627Z,2.29
2023-03-06T04:14:16.261Z,2.24
2023-03-06T04:16:45.938Z,2.20
2023-03-06T04:19:13.160Z,2.16
2023-03-06T04:21:40.564Z,2.15
2023-03-06T04:24:09.004Z,2.09
2023-03-06T04:26:38.473Z,2.08
2023-03-06T04:29:06.436Z,2.07
2023-03-06T04:31:33.396Z,2.08
2023-03-06T04:34:00.742Z,2.07
2023-03-06T04:36:28.315Z,2.03
2023-03-06T04:38:59.106Z,2.04
2023-03-06T04:41:26.612Z,2.05
2023-03-06T04:43:54.165Z,2.02
2023-03-06T04:46:23.379Z,2.01
2023-03-06T04:48:50.557Z,2.01
2023-03-06T04:51:19.814Z,1.99
2023-03-06T04:53:47.084Z,1.97
2023-03-06T04:56:14.023Z,1.97
2023-03-06T04:58:41.221Z,1.95
2023-03-06T05:01:08.344Z,1.94
2023-03-06T05:03:38.239Z,1.95
2023-03-06T05:06:05.328Z,1.93
2023-03-06T05:08:32.547Z,1.92
2023-03-06T05:11:00.881Z,1.95
2023-03-06T05:13:29.145Z,1.96
2023-03-06T05:16:01.080Z,2.00
2023-03-06T05:18:28.571Z,2.00
2023-03-06T05:20:59.539Z,1.99
2023-03-06T05:23:27.397Z,1.99
2023-03-06T05:25:54.308Z,2.00
2023-03-06T05:28:21.499Z,1.99
2023-03-06T05:30:48.935Z,2.02
2023-03-06T05:33:16.299Z,2.01
2023-03-06T05:35:47.400Z,2.01
2023-03-06T05:38:16.140Z,2.03
2023-03-06T05:40:43.964Z,2.03
2023-03-06T05:43:13.741Z,2.04
2023-03-06T05:45:40.817Z,2.06
2023-03-06T05:48:08.806Z,2.07
2023-03-06T05:50:35.616Z,2.07
2023-03-06T05:53:03.097Z,2.10
2023-03-06T05:55:30.203Z,2.12
2023-03-06T05:57:57.484Z,2.16
2023-03-06T06:00:24.715Z,2.20
2023-03-06T06:02:52.097Z,2.22
2023-03-06T06:05:19.137Z,2.27
2023-03-06T06:07:46.477Z,2.32
2023-03-06T06:10:13.697Z,2.41
2023-03-06T06:12:40.966Z,2.45
2023-03-06T06:15:10.862Z,2.46
2023-03-06T06:17:38.359Z,2.52
2023-03-06T06:20:05.963Z,2.55
2023-03-06T06:22:35.574Z,2.61
2023-03-06T06:25:02.518Z,2.62
2023-03-06T06:27:29.818Z,2.62
2023-03-06T06:29:59.092Z,2.68
2023-03-06T06:32:26.476Z,2.70
2023-03-06T06:34:55.998Z,2.73
2023-03-06T06:37:24.792Z,2.81
2023-03-06T06:39:51.804Z,2.90
2023-03-06T06:42:32.934Z,2.93
2023-03-06T06:45:01.228Z,2.98
2023-03-06T06:47:30.977Z,3.02
2023-03-06T06:49:58.021Z,3.10
2023-03-06T06:52:25.321Z,3.12
2023-03-06T06:54:52.891Z,3.16
2023-03-06T06:57:20.122Z,3.26
2023-03-06T06:59:47.271Z,3.35
2023-03-06T07:02:18.002Z,3.45
2023-03-06T07:05:02.091Z,3.51
2023-03-06T07:07:30.553Z,3.60
2023-03-06T07:09:57.487Z,3.62
2023-03-06T07:12:24.919Z,3.62
2023-03-06T07:14:51.949Z,3.70
2023-03-06T07:17:21.616Z,3.79
2023-03-06T07:19:48.676Z,3.76
2023-03-06T07:22:16.236Z,3.88
2023-03-06T07:24:43.181Z,3.89
2023-03-06T07:27:10.451Z,4.00
2023-03-06T07:29:37.395Z,4.13
2023-03-06T07:32:07.181Z,4.26
2023-03-06T07:34:34.092Z,4.38
2023-03-06T07:37:01.336Z,4.42
2023-03-06T07:39:30.221Z,4.49
2023-03-06T07:41:59.571Z,4.58
2023-03-06T07:44:26.681Z,4.69
2023-03-06T07:46:53.996Z,4.81
2023-03-06T07:49:20.916Z,4.96
2023-03-06T07:51:48.565Z,5.05
2023-03-06T07:54:18.122Z,5.14
2023-03-06T07:56:45.527Z,5.13
2023-03-06T07:59:12.483Z,5.27
2023-03-06T08:01:42.291Z,5.25
2023-03-06T08:04:11.679Z,5.25
2023-03-06T08:06:38.899Z,5.42
2023-03-06T08:09:09.911Z,5.41
2023-03-06T08:11:37.303Z,5.63
2023-03-06T08:14:04.261Z,5.89
2023-03-06T08:16:31.598Z,6.06
2023-03-06T08:18:58.781Z,6.18
2023-03-06T08:21:29.407Z,6.17
2023-03-06T08:23:56.590Z,6.36
2023-03-06T08:26:27.774Z,6.53
2023-03-06T08:28:55.887Z,6.63
2023-03-06T08:31:29.405Z,6.75
2023-03-06T08:33:56.936Z,7.00
2023-03-06T08:36:24.612Z,6.93
2023-03-06T08:38:51.541Z,7.23
2023-03-06T08:41:20.268Z,7.27
2023-03-06T08:43:47.488Z,7.38
2023-03-06T08:46:14.899Z,7.43
2023-03-06T08:48:41.918Z,7.43
2023-03-06T08:51:09.872Z,7.60
2023-03-06T08:53:43.139Z,7.55
2023-03-06T08:56:17.112Z,7.51
2023-03-06T08:58:44.576Z,7.72
2023-03-06T09:01:16.757Z,7.60
2023-03-06T09:03:43.796Z,8.02
2023-03-06T09:06:11.016Z,8.10
2023-03-06T09:08:38.537Z,7.96
2023-03-06T09:11:05.768Z,7.73
2023-03-06T09:13:33.102Z,7.83
2023-03-06T09:16:00.462Z,7.81
2023-03-06T09:18:29.409Z,8.08
2023-03-06T09:20:56.719Z,8.20
2023-03-06T09:23:26.133Z,8.21
2023-03-06T09:25:54.405Z,8.24
2023-03-06T09:28:21.392Z,8.36
2023-03-06T09:30:49.189Z,8.30
2023-03-06T09:33:16.602Z,8.31
2023-03-06T09:35:52.141Z,8.34
2023-03-06T09:38:19.466Z,8.31
2023-03-06T09:41:01.558Z,8.16
2023-03-06T09:43:28.716Z,8.24
2023-03-06T09:45:56.626Z,8.17
2023-03-06T09:48:32.475Z,8.21
2023-03-06T09:51:04.364Z,8.05
2023-03-06T09:53:43.262Z,8.12
2023-03-06T09:56:21.298Z,7.97
2023-03-06T09:58:55.289Z,8.12
2023-03-06T10:01:25.530Z,8.22
2023-03-06T10:04:01.925Z,8.24
2023-03-06T10:06:44.426Z,8.06
2023-03-06T10:09:25.338Z,7.90
2023-03-06T10:11:58.903Z,7.92
2023-03-06T10:14:28.768Z,8.01
2023-03-06T10:16:56.481Z,7.78
2023-03-06T10:19:23.599Z,7.82
2023-03-06T10:22:09.629Z,7.91
2023-03-06T10:24:39.707Z,7.80
2023-03-06T10:27:16.985Z,8.02
2023-03-06T10:30:03.991Z,8.20
2023-03-06T10:32:51.895Z,8.35
2023-03-06T10:35:21.941Z,8.28
2023-03-06T10:37:49.673Z,8.62
2023-03-06T10:40:22.401Z,8.68
2023-03-06T10:42:56.205Z,8.42
2023-03-06T10:45:47.302Z,8.45
2023-03-06T10:48:19.308Z,8.55
2023-03-06T10:50:46.620Z,8.92
2023-03-06T10:53:19.763Z,9.13
2023-03-06T10:55:51.609Z,9.49
2023-03-06T10:58:24.327Z,9.25
2023-03-06T11:01:20.729Z,8.98
2023-03-06T11:03:48.362Z,9.24
2023-03-06T11:06:30.373Z,9.29
2023-03-06T11:09:14.715Z,9.15
2023-03-06T11:11:41.861Z,8.98
2023-03-06T11:14:17.014Z,8.89
2023-03-06T11:16:54.531Z,8.66
2023-03-06T11:19:27.410Z,8.88
2023-03-06T11:22:00.374Z,8.96
2023-03-06T11:24:33.996Z,8.92
2023-03-06T11:27:03.416Z,9.13
2023-03-06T11:29:44.718Z,9.13
2023-03-06T11:32:14.726Z,9.10
2023-03-06T11:34:50.247Z,9.17
2023-03-06T11:37:32.612Z,9.12
2023-03-06T11:40:09.306Z,9.31
2023-03-06T11:42:36.248Z,9.22
2023-03-06T11:45:13.604Z,9.27
2023-03-06T11:47:43.555Z,9.35
2023-03-06T11:50:23.095Z,9.30
2023-03-06T11:52:56.165Z,9.53
2023-03-06T11:55:40.229Z,9.49
2023-03-06T11:58:19.318Z,9.39
2023-03-06T12:01:05.569Z,9.47
2023-03-06T12:03:57.853Z,9.36
2023-03-06T12:06:37.382Z,9.37
2023-03-06T12:09:04.999Z,9.09
2023-03-06T12:11:47.508Z,9.17
2023-03-06T12:14:39.105Z,9.20
2023-03-06T12:17:15.409Z,8.79
2023-03-06T12:19:52.580Z,9.03
2023-03-06T12:22:34.496Z,9.03
2023-03-06T12:25:10.295Z,8.86
2023-03-06T12:27:56.471Z,8.51
2023-03-06T12:30:42.239Z,8.82
2023-03-06T12:33:15.839Z,9.08
2023-03-06T12:35:52.184Z,9.24
2023-03-06T12:38:22.489Z,9.10
2023-03-06T12:41:08.274Z,8.87
2023-03-06T12:44:10.935Z,8.90
2023-03-06T12:46:43.488Z,9.19
2023-03-06T12:49:32.951Z,9.25
2023-03-06T12:52:01.681Z,8.93
2023-03-06T12:54:30.701Z,9.10
2023-03-06T12:57:00.768Z,8.90
2023-03-06T12:59:34.371Z,8.97
2023-03-06T13:02:25.104Z,9.07
2023-03-06T13:05:15.761Z,9.21
2023-03-06T13:07:49.272Z,9.12
2023-03-06T13:10:26.503Z,8.85
2023-03-06T13:12:56.169Z,8.67
2023-03-06T13:15:35.234Z,8.55
2023-03-06T13:18:22.359Z,8.46
2023-03-06T13:20:51.244Z,8.45
2023-03-06T13:23:27.254Z,8.58
2023-03-06T13:25:55.111Z,8.64
2023-03-06T13:28:24.003Z,8.60
2023-03-06T13:30:53.018Z,8.62
2023-03-06T13:33:37.722Z,8.78
2023-03-06T13:36:25.550Z,9.03
2023-03-06T13:38:52.376Z,8.88
2023-03-06T13:41:25.239Z,8.71
2023-03-06T13:43:53.314Z,8.72
2023-03-06T13:46:26.201Z,8.87
2023-03-06T13:49:08.403Z,8.96
2023-03-06T13:51:39.032Z,9.07
2023-03-06T13:54:24.521Z,9.24
2023-03-06T13:56:54.731Z,9.44
2023-03-06T13:59:27.715Z,9.39
2023-03-06T14:02:03.945Z,9.32
2023-03-06T14:04:38.119Z,9.35
2023-03-06T14:07:08.551Z,9.35
2023-03-06T14:09:43.439Z,9.32
2023-03-06T14:12:26.062Z,9.30
2023-03-06T14:14:55.295Z,9.20
2023-03-06T14:17:28.957Z,9.25
2023-03-06T14:19:58.183Z,9.18
2023-03-06T14:22:25.486Z,9.17
2023-03-06T14:25:01.560Z,9.17
2023-03-06T14:27:39.616Z,9.12
2023-03-06T14:30:13.594Z,9.04
2023-03-06T14:32:41.099Z,8.90
2023-03-06T14:35:19.361Z,8.84
2023-03-06T14:37:48.497Z,8.72
2023-03-06T14:40:18.468Z,8.63
2023-03-06T14:42:45.636Z,8.59
2023-03-06T14:45:17.410Z,8.57
2023-03-06T14:47:49.783Z,8.55
2023-03-06T14:50:20.160Z,8.53
2023-03-06T14:52:52.241Z,8.54
2023-03-06T14:55:21.005Z,8.56
2023-03-06T14:57:51.113Z,8.43
2023-03-06T15:00:21.614Z,8.31
2023-03-06T15:02:50.890Z,8.22
2023-03-06T15:05:17.843Z,8.25
2023-03-06T15:07:45.634Z,8.16
2023-03-06T15:10:27.051Z,8.00
2023-03-06T15:12:54.601Z,7.97
2023-03-06T15:15:24.623Z,7.97
2023-03-06T15:17:54.532Z,7.91
2023-03-06T15:20:38.358Z,7.86
2023-03-06T15:23:13.744Z,7.88
2023-03-06T15:25:40.851Z,7.85
2023-03-06T15:28:26.037Z,7.79
2023-03-06T15:31:03.735Z,7.74
2023-03-06T15:33:31.267Z,7.72
2023-03-06T15:35:58.656Z,7.63
2023-03-06T15:38:46.221Z,7.57
2023-03-06T15:41:23.975Z,7.55
2023-03-06T15:43:51.347Z,7.48
2023-03-06T15:46:18.522Z,7.41
2023-03-06T15:48:53.094Z,7.40
2023-03-06T15:51:20.440Z,7.38
2023-03-06T15:53:49.275Z,7.37
2023-03-06T15:56:21.326Z,7.34
2023-03-06T15:58:48.729Z,7.30
2023-03-06T16:01:17.754Z,7.25
2023-03-06T16:03:48.301Z,7.17
2023-03-06T16:06:24.397Z,7.10
2023-03-06T16:08:52.309Z,7.02
2023-03-06T16:11:41.852Z,6.97
2023-03-06T16:14:20.639Z,6.95
2023-03-06T16:16:48.873Z,6.89
2023-03-06T16:19:28.195Z,6.81
2023-03-06T16:21:59.164Z,6.74
2023-03-06T16:24:26.731Z,6.71
2023-03-06T16:26:55.042Z,6.61
2023-03-06T16:29:26.373Z,6.52
2023-03-06T16:31:55.741Z,6.45
2023-03-06T16:34:23.156Z,6.40
2023-03-06T16:36:55.189Z,6.39
2023-03-06T16:39:24.717Z,6.45
2023-03-06T16:41:52.071Z,6.47
2023-03-06T16:44:20.353Z,6.48
2023-03-06T16:46:48.822Z,6.34
2023-03-06T16:49:17.754Z,6.40
2023-03-06T16:51:45.579Z,6.44
2023-03-06T16:54:13.242Z,6.35
2023-03-06T16:56:40.995Z,6.25
2023-03-06T16:59:11.575Z,6.21
2023-03-06T17:01:40.430Z,6.16
2023-03-06T17:04:08.336Z,6.14
2023-03-06T17:06:38.478Z,6.16
2023-03-06T17:09:06.426Z,6.24
2023-03-06T17:11:38.847Z,6.25
2023-03-06T17:14:07.285Z,6.27
2023-03-06T17:16:37.033Z,6.31
2023-03-06T17:19:07.852Z,6.29
2023-03-06T17:21:38.928Z,6.24
2023-03-06T17:24:07.136Z,6.24
2023-03-06T17:26:37.585Z,6.25
2023-03-06T17:29:07.097Z,6.21
2023-03-06T17:31:35.026Z,6.15
2023-03-06T17:34:03.046Z,6.19
2023-03-06T17:36:31.232Z,6.21
2023-03-06T17:39:00.523Z,6.23
2023-03-06T17:41:28.302Z,6.25
2023-03-06T17:43:56.729Z,6.32
2023-03-06T17:46:24.980Z,6.33
2023-03-06T17:48:55.431Z,6.33
2023-03-06T17:51:22.809Z,6.33
2023-03-06T17:53:52.355Z,6.43
2023-03-06T17:56:21.777Z,6.44
2023-03-06T17:58:49.857Z,6.47
2023-03-06T18:01:19.412Z,6.50
2023-03-06T18:03:48.745Z,6.47
2023-03-06T18:06:18.451Z,6.45
2023-03-06T18:08:48.066Z,6.50
2023-03-06T18:11:15.891Z,6.49
2023-03-06T18:13:45.278Z,6.45
2023-03-06T18:16:15.259Z,6.46
2023-03-06T18:18:43.523Z,6.43
2023-03-06T18:21:12.450Z,6.40
2023-03-06T18:23:42.082Z,6.41
2023-03-06T18:26:12.507Z,6.40
2023-03-06T18:28:42.955Z,6.39
2023-03-06T18:31:19.027Z,6.36
2023-03-06T18:33:50.074Z,6.34
2023-03-06T18:36:19.043Z,6.29
2023-03-06T18:38:48.669Z,6.27
2023-03-06T18:41:16.741Z,6.21
2023-03-06T18:43:52.110Z,6.15
2023-03-06T18:46:21.361Z,6.14
2023-03-06T18:48:49.677Z,6.10
2023-03-06T18:51:18.375Z,6.03
2023-03-06T18:53:47.085Z,6.01
2023-03-06T18:56:21.885Z,5.98
2023-03-06T18:58:56.223Z,5.99
2023-03-06T19:01:30.856Z,5.98
2023-03-06T19:04:05.843Z,5.88
2023-03-06T19:06:37.324Z,5.77
2023-03-06T19:09:05.412Z,5.65
2023-03-06T19:11:33.992Z,5.54
2023-03-06T19:14:02.440Z,5.46
2023-03-06T19:16:31.522Z,5.37
2023-03-06T19:18:59.672Z,5.33
2023-03-06T19:21:28.100Z,5.37
2023-03-06T19:23:56.809Z,5.41
2023-03-06T19:26:24.368Z,5.46
2023-03-06T19:28:53.150Z,5.44
2023-03-06T19:31:23.062Z,5.41
2023-03-06T19:33:54.637Z,5.36
2023-03-06T19:36:28.243Z,5.30
2023-03-06T19:38:57.313Z,5.18
2023-03-06T19:41:28.861Z,5.08
2023-03-06T19:44:01.718Z,4.99
2023-03-06T19:46:29.797Z,4.95
2023-03-06T19:48:58.961Z,4.98
2023-03-06T19:51:29.308Z,4.92
2023-03-06T19:53:59.155Z,4.91
2023-03-06T19:56:28.028Z,4.91
2023-03-06T19:58:57.903Z,4.91
2023-03-06T20:01:26.747Z,4.90
2023-03-06T20:04:00.104Z,4.88
2023-03-06T20:06:30.333Z,4.84
2023-03-06T20:09:00.162Z,4.79
2023-03-06T20:11:31.773Z,4.64
2023-03-06T20:14:00.323Z,4.53
2023-03-06T20:16:33.790Z,4.44
2023-03-06T20:19:02.522Z,4.37
2023-03-06T20:21:32.262Z,4.32
2023-03-06T20:24:00.484Z,4.28
2023-03-06T20:26:31.476Z,4.23
2023-03-06T20:29:00.008Z,4.19
2023-03-06T20:31:28.823Z,4.16
2023-03-06T20:33:58.239Z,4.14
2023-03-06T20:36:29.312Z,4.10
2023-03-06T20:39:00.705Z,4.08
2023-03-06T20:41:29.667Z,4.01
2023-03-06T20:44:02.760Z,4.00
2023-03-06T20:46:31.238Z,3.98
2023-03-06T20:49:04.987Z,3.97
2023-03-06T20:51:33.989Z,3.96
2023-03-06T20:54:02.476Z,3.94
2023-03-06T20:56:31.413Z,3.93
2023-03-06T20:59:00.887Z,3.90
2023-03-06T21:01:32.215Z,3.86
2023-03-06T21:04:00.372Z,3.83
2023-03-06T21:06:30.065Z,3.80
2023-03-06T21:08:58.822Z,3.84
2023-03-06T21:11:26.458Z,3.85
2023-03-06T21:13:54.340Z,3.78
2023-03-06T21:16:25.122Z,3.76
2023-03-06T21:18:54.553Z,3.67
2023-03-06T21:21:22.896Z,3.63
2023-03-06T21:23:50.706Z,3.54
2023-03-06T21:26:19.173Z,3.44
2023-03-06T21:28:46.575Z,3.38
2023-03-06T21:31:14.727Z,3.32
2023-03-06T21:33:43.018Z,3.21
2023-03-06T21:36:10.656Z,3.14
2023-03-06T21:38:38.066Z,3.06
2023-03-06T21:41:24.146Z,3.01
2023-03-06T21:43:55.575Z,2.92
2023-03-06T21:46:22.893Z,2.86
2023-03-06T21:48:50.066Z,2.82
2023-03-06T21:51:19.198Z,2.77
2023-03-06T21:53:46.979Z,2.72
2023-03-06T21:56:14.734Z,2.71
2023-03-06T21:58:42.049Z,2.67
2023-03-06T22:01:13.263Z,2.66
2023-03-06T22:03:40.515Z,2.62
2023-03-06T22:06:13.892Z,2.61
2023-03-06T22:08:41.995Z,2.61
2023-03-06T22:11:10.157Z,2.61
2023-03-06T22:13:37.854Z,2.64
2023-03-06T22:16:05.487Z,2.64
2023-03-06T22:18:33.485Z,2.67
2023-03-06T22:21:00.475Z,2.71
2023-03-06T22:23:27.772Z,2.73
2023-03-06T22:25:54.627Z,2.80
2023-03-06T22:28:21.872Z,2.80
2023-03-06T22:30:48.917Z,2.84
2023-03-06T22:33:16.084Z,2.86
2023-03-06T22:35:46.138Z,2.91
2023-03-06T22:38:13.394Z,2.94
2023-03-06T22:40:40.213Z,3.01
2023-03-06T22:43:07.381Z,3.00
2023-03-06T22:45:35.141Z,3.00
2023-03-06T22:48:10.572Z,3.01
2023-03-06T22:50:38.113Z,3.02
2023-03-06T22:53:05.304Z,3.04
2023-03-06T22:55:34.410Z,3.05
2023-03-06T22:58:01.804Z,3.11
2023-03-06T23:00:28.614Z,3.12
2023-03-06T23:02:55.769Z,3.19
2023-03-06T23:05:22.688Z,3.18
2023-03-06T23:07:49.838Z,3.20
2023-03-06T23:10:17.755Z,3.21
2023-03-06T23:13:03.949Z,3.23
2023-03-06T23:15:49.117Z,3.24
2023-03-06T23:18:35.912Z,3.26
2023-03-06T23:21:22.714Z,3.32
2023-03-06T23:24:08.163Z,3.46
2023-03-06T23:26:35.141Z,3.46
2023-03-06T23:29:04.323Z,3.33
2023-03-06T23:31:32.326Z,3.24
2023-03-06T23:34:00.775Z,3.15
2023-03-06T23:36:28.871Z,3.07
2023-03-06T23:38:56.459Z,2.95
2023-03-06T23:41:23.785Z,2.86
2023-03-06T23:43:52.367Z,2.81
2023-03-06T23:46:23.745Z,2.74
2023-03-06T23:48:50.979Z,2.75
2023-03-06T23:51:20.183Z,2.69
2023-03-06T23:53:47.981Z,2.61
2023-03-06T23:56:17.301Z,2.54
2023-03-06T23:58:45.683Z,2.52
